Terminal Aerodrome Forecast
Issued by NWS

Current Version | Previous Version | Graphics & Text | Print | Product List | Glossary On
Versions: 1 2 3 4 5 6 7 8 9 10 11 12 13 14
409
FTUS41 KILN 051133
TAFLCK
TAF
KLCK 051133Z 0512/0612 29004KT P6SM SKC
     FM051500 23007KT P6SM FEW050 BKN250
     FM060600 24004KT P6SM SCT250=

USA.gov is the U.S. government's official web portal to all federal, state and local government web resources and services.